OMAL/AAN METAR and TAF weather

Enter ICAO airport designator
Station Type Date Time Source
OMAL METAR 2019/04/23 04:13 UTC NOAA

OMAL 230413Z 26010KT 8000 NSC 30/17 Q1013 BECMG 32010KT


Station Type Date Time Source
OMAL Decoded METAR 2019/04/23 04:13 UTC NOAA

Al Ain International Airport, United Arab Emirates (OMAL) 24-16N 055-36E 262M
Apr 23, 2019 - 12:13 AM EDT / 2019.04.23 0413 UTC
Wind: from the W (260 degrees) at 12 MPH (10 KT):0
Visibility: 4 mile(s):0
Temperature: 86 F (30 C)
Dew Point: 62 F (17 C)
Relative Humidity: 45%
Pressure (altimeter): 29.91 in. Hg (1013 hPa)
ob: OMAL 230413Z 26010KT 8000 NSC 30/17 Q1013 BECMG 32010KT
cycle: 4

Station Type Date Time Source
OMAL TAF 2019/04/22 18:02 UTC NOAA

TAF OMAL 221700Z 2218/2400 VRB02KT 8000 NSC
BECMG 2221/2223 28010KT PROB30
TEMPO 2306/2315 33015G25KT 3000 BLDU

Example: see airport list